Airport Information

KACV - Arcata Airport

KACV 160653Z AUTO 14008KT 10SM OVC048 12/06 A2970 RMK AO2 RAB00E09 SLP062 P0000 T01170061


  • General Information

  • Coordinates: N 40°58'41"/ W 124°6'30"
  • Location: N/A
  • Surveyed Elevation: 221 MSL

Operations

Flow Name Active Runways Conditions

Green background denotes normal operations.


Common Frequencies

Callsign Frequency Position Name

More at the Document Center


Charts